Atlanta, Georgia
Traffic Map
Current Weather Conditions
Atlanta, Georgia
Few Clouds
Few Clouds
73°
Feels Like: 73°
Wind Chill: 73° Ceiling: Unl
Heat Index: 73° Visibility: 10mi
Dew Point: 45° Wind: 9mph
Humidity: 37% Direction: 310° (NW)
Pressure: 30.01in Gusts: 0mph
Raw Report DataKATL 252152Z 31008KT 10SM FEW150 23/07 A3001 RMK AO2 SLP160 T02280072
Traffic Incident Summary
Active as of:
Severity:
Category:
InformationThere was an issue retrieving the traffic information for this location. Please try a different location or try again shortly.
Advertisements
Track Severe Weather on mobile